createdAt,value
2018-07-05T00:02:10.083Z,99.40
2018-07-05T00:07:24.694Z,99.90
2018-07-05T00:12:39.327Z,99.90
2018-07-05T00:17:54.032Z,99.90
2018-07-05T00:23:08.617Z,99.90
2018-07-05T00:28:23.291Z,99.90
2018-07-05T00:33:37.941Z,99.90
2018-07-05T00:38:52.545Z,99.90
2018-07-05T00:44:07.219Z,99.90
2018-07-05T00:49:21.956Z,99.90
2018-07-05T00:54:36.911Z,99.90
2018-07-05T00:59:51.743Z,99.90
2018-07-05T01:05:06.312Z,99.90
2018-07-05T01:10:20.884Z,99.90
2018-07-05T01:15:35.442Z,99.90
2018-07-05T01:20:50.190Z,99.90
2018-07-05T01:26:05.058Z,99.90
2018-07-05T01:31:19.710Z,99.90
2018-07-05T01:36:34.274Z,99.90
2018-07-05T01:46:57.374Z,99.90
2018-07-05T01:52:12.496Z,99.90
2018-07-05T01:57:27.159Z,99.90
2018-07-05T02:02:41.803Z,99.90
2018-07-05T02:07:56.445Z,99.90
2018-07-05T02:13:11.101Z,99.90
2018-07-05T02:18:25.770Z,99.90
2018-07-05T02:23:40.498Z,99.90
2018-07-05T02:28:55.031Z,99.90
2018-07-05T02:34:09.871Z,99.90
2018-07-05T02:39:30.072Z,99.90
2018-07-05T02:44:44.814Z,99.90
2018-07-05T02:49:59.507Z,99.90
2018-07-05T02:55:14.188Z,99.90
2018-07-05T03:00:28.881Z,99.90
2018-07-05T03:05:43.505Z,99.90
2018-07-05T03:10:58.168Z,99.90
2018-07-05T03:16:12.808Z,99.90
2018-07-05T03:21:27.428Z,99.90
2018-07-05T03:26:42.102Z,99.90
2018-07-05T03:31:56.777Z,99.90
2018-07-05T03:37:11.368Z,99.90
2018-07-05T03:42:26.055Z,99.90
2018-07-05T03:47:40.779Z,99.90
2018-07-05T03:52:55.406Z,99.90
2018-07-05T03:58:10.173Z,99.90
2018-07-05T04:08:33.459Z,99.90
2018-07-05T04:13:48.064Z,99.90
2018-07-05T04:19:02.725Z,99.90
2018-07-05T04:24:17.398Z,99.90
2018-07-05T04:29:32.098Z,99.90
2018-07-05T04:34:46.760Z,99.90
2018-07-05T04:40:01.423Z,99.90
2018-07-05T04:45:16.044Z,99.90
2018-07-05T04:50:30.603Z,99.90
2018-07-05T04:55:45.335Z,99.90
2018-07-05T05:00:59.996Z,99.90
2018-07-05T05:06:14.636Z,99.90
2018-07-05T05:11:29.343Z,99.90
2018-07-05T05:16:44.215Z,99.90
2018-07-05T05:27:07.366Z,99.90
2018-07-05T05:32:22.086Z,99.90
2018-07-05T05:37:36.664Z,98.40
2018-07-05T05:42:51.386Z,98.50
2018-07-05T05:48:06.138Z,96.60
2018-07-05T05:53:20.729Z,96.40
2018-07-05T05:58:35.488Z,96.30
2018-07-05T06:03:50.303Z,93.90
2018-07-05T06:09:05.475Z,94.00
2018-07-05T06:14:20.047Z,92.10
2018-07-05T06:19:34.835Z,92.20
2018-07-05T06:24:49.372Z,92.70
2018-07-05T06:30:03.923Z,92.00
2018-07-05T06:35:18.392Z,90.70
2018-07-05T06:40:33.035Z,86.10
2018-07-05T06:45:47.803Z,83.70
2018-07-05T06:51:02.440Z,85.50
2018-07-05T06:56:16.952Z,90.00
2018-07-05T07:01:31.507Z,80.00
2018-07-05T07:06:46.248Z,76.70
2018-07-05T07:12:00.913Z,73.20
2018-07-05T07:17:15.502Z,68.80
2018-07-05T07:22:30.411Z,77.70
2018-07-05T07:27:45.389Z,69.80
2018-07-05T07:33:00.175Z,68.40
2018-07-05T07:38:15.304Z,69.20
2018-07-05T07:43:18.877Z,69.00
2018-07-05T07:48:21.847Z,62.40
2018-07-05T07:53:24.112Z,62.90
2018-07-05T07:58:26.936Z,63.70
2018-07-05T08:03:29.235Z,62.10
2018-07-05T08:08:31.782Z,61.30
2018-07-05T08:13:34.375Z,60.50
2018-07-05T08:18:36.730Z,60.70
2018-07-05T08:28:41.498Z,63.90
2018-07-05T08:33:43.731Z,67.40
2018-07-05T08:38:45.995Z,62.30
2018-07-05T08:43:48.320Z,57.50
2018-07-05T08:48:50.739Z,61.60
2018-07-05T08:53:53.022Z,60.90
2018-07-05T08:58:56.127Z,60.90
2018-07-05T09:03:58.587Z,61.40
2018-07-05T09:09:01.081Z,57.80
2018-07-05T09:14:03.756Z,54.70
2018-07-05T09:24:09.624Z,57.20
2018-07-05T09:29:12.150Z,55.30
2018-07-05T09:34:14.469Z,52.20
2018-07-05T09:39:17.044Z,50.30
2018-07-05T09:49:23.342Z,54.10
2018-07-05T09:59:30.545Z,53.40
2018-07-05T10:04:33.472Z,46.40
2018-07-05T10:14:38.877Z,51.80
2018-07-05T10:19:41.730Z,48.20
2018-07-05T10:24:44.038Z,48.80
2018-07-05T10:29:59.203Z,50.10
2018-07-05T10:35:01.751Z,50.80
2018-07-05T12:05:00.776Z,51.90
2018-07-05T12:10:15.531Z,45.40
2018-07-05T12:20:38.565Z,44.30
2018-07-05T12:25:53.002Z,44.60
2018-07-05T12:36:17.001Z,47.40
2018-07-05T12:41:31.784Z,46.20
2018-07-05T12:46:46.534Z,45.30
2018-07-05T12:52:01.192Z,44.60
2018-07-05T12:57:15.731Z,41.20
2018-07-05T13:02:30.461Z,42.30
2018-07-05T13:07:45.017Z,43.20
2018-07-05T13:12:59.792Z,40.60
2018-07-05T13:18:14.547Z,39.00
2018-07-05T13:23:29.122Z,40.40
2018-07-05T13:28:43.783Z,39.70
2018-07-05T13:33:58.373Z,40.90
2018-07-05T13:44:21.995Z,42.40
2018-07-05T13:49:36.701Z,42.70
2018-07-05T13:54:51.372Z,43.00
2018-07-05T14:00:05.977Z,42.50
2018-07-05T14:05:20.730Z,45.40
2018-07-05T14:15:44.270Z,57.20
2018-07-05T14:20:59.040Z,58.20
2018-07-05T14:31:22.233Z,62.80
2018-07-05T14:41:45.593Z,62.90
2018-07-05T14:47:00.242Z,64.00
2018-07-05T14:52:15.500Z,64.40
2018-07-05T14:57:29.932Z,65.00
2018-07-05T15:02:44.667Z,64.40
2018-07-05T15:07:59.250Z,65.50
2018-07-05T15:13:14.001Z,64.60
2018-07-05T15:18:28.658Z,64.40
2018-07-05T15:23:43.152Z,64.50
2018-07-05T15:28:57.756Z,64.90
2018-07-05T15:39:20.836Z,70.20
2018-07-05T15:44:35.737Z,75.00
2018-07-05T15:49:50.475Z,75.50
2018-07-05T15:55:05.015Z,79.30
2018-07-05T16:00:19.659Z,80.80
2018-07-05T16:05:34.224Z,82.50
2018-07-05T16:10:49.120Z,83.90
2018-07-05T16:16:03.710Z,82.90
2018-07-05T16:21:18.522Z,83.70
2018-07-05T16:26:33.803Z,88.40
2018-07-05T16:31:48.879Z,84.50
2018-07-05T16:37:03.581Z,84.80
2018-07-05T16:42:18.642Z,80.00
2018-07-05T16:47:33.938Z,76.80
2018-07-05T16:57:57.741Z,76.40
2018-07-05T17:03:12.621Z,75.10
2018-07-05T17:08:27.178Z,75.00
2018-07-05T17:13:41.914Z,73.80
2018-07-05T17:18:56.661Z,72.90
2018-07-05T17:24:11.402Z,71.10
2018-07-05T17:29:26.163Z,70.90
2018-07-05T17:40:58.842Z,72.40
2018-07-05T17:46:15.000Z,73.30
2018-07-05T17:56:38.323Z,75.50
2018-07-05T18:01:53.143Z,74.90
2018-07-05T18:07:07.954Z,74.60
2018-07-05T18:12:22.669Z,74.60
2018-07-05T18:17:37.092Z,73.60
2018-07-05T18:22:51.876Z,71.80
2018-07-05T18:28:06.549Z,71.70
2018-07-05T18:33:21.121Z,71.50
2018-07-05T18:38:35.796Z,71.80
2018-07-05T18:43:50.815Z,72.80
2018-07-05T18:49:05.475Z,73.00
2018-07-05T18:54:20.222Z,73.30
2018-07-05T18:59:35.047Z,73.70
2018-07-05T19:09:58.203Z,75.90
2018-07-05T19:15:12.830Z,76.60
2018-07-05T19:25:36.158Z,77.50
2018-07-05T19:30:50.704Z,77.60
2018-07-05T19:36:05.282Z,78.80
2018-07-05T19:41:19.859Z,79.10
2018-07-05T19:46:34.334Z,79.50
2018-07-05T19:51:48.961Z,80.80
2018-07-05T19:57:03.635Z,82.20
2018-07-05T20:07:26.957Z,87.50
2018-07-05T20:12:41.613Z,88.50
2018-07-05T20:17:56.413Z,89.00
2018-07-05T20:23:11.013Z,91.40
2018-07-05T20:28:25.626Z,91.60
2018-07-05T20:33:40.381Z,92.50
2018-07-05T20:38:55.065Z,93.20
2018-07-05T20:44:09.668Z,93.60
2018-07-05T20:49:24.489Z,93.90
2018-07-05T20:54:39.353Z,94.40
2018-07-05T20:59:54.237Z,94.50
2018-07-05T21:05:08.817Z,97.70
2018-07-05T21:10:23.502Z,99.70
2018-07-05T21:15:38.386Z,99.90
2018-07-05T21:20:53.119Z,99.90
2018-07-05T21:36:25.789Z,99.90
2018-07-05T21:41:41.227Z,99.90
2018-07-05T21:46:56.423Z,99.90
2018-07-05T21:52:11.659Z,99.90
2018-07-05T21:57:26.301Z,99.90
2018-07-05T22:02:41.327Z,99.90
2018-07-05T22:13:05.203Z,99.90
2018-07-05T22:18:25.549Z,99.90
2018-07-05T22:23:45.674Z,99.90
2018-07-05T22:29:06.357Z,99.90
2018-07-05T22:34:21.067Z,99.90
2018-07-05T22:39:35.811Z,99.90
2018-07-05T22:44:50.760Z,99.90
2018-07-05T22:50:05.444Z,99.90
2018-07-05T22:55:20.082Z,99.90
2018-07-05T23:00:34.905Z,99.90
2018-07-05T23:16:06.343Z,99.90
2018-07-05T23:21:21.000Z,99.90
2018-07-05T23:31:44.127Z,99.90
2018-07-05T23:36:58.850Z,99.90
2018-07-05T23:42:13.436Z,99.90
2018-07-05T23:47:28.142Z,99.90
2018-07-05T23:52:42.841Z,99.90
2018-07-05T23:57:57.531Z,99.90
